Time;durP1;ratioP1;P1;durP2;ratioP2;P2;SDS_P1;SDS_P2;PMS_P1;PMS_P2;Temp;Humidity;BMP_temperature;BMP_pressure;BME280_temperature;BME280_humidity;BME280_pressure;Samples;Min_cycle;Max_cycle;Signal;HPM_P1;HPM_P2
2021/07/03 00:00:23;;;;;;;3.77;3.12;;;;;;;20.18;84.80;99600.78;1662381;83;20904;-82
2021/07/03 00:02:49;;;;;;;6.20;3.40;;;;;;;20.22;84.73;99600.62;1669270;84;20941;-82
2021/07/03 00:05:14;;;;;;;4.28;3.15;;;;;;;20.21;84.91;99607.02;1647071;83;20986;-81
2021/07/03 00:07:40;;;;;;;4.12;2.92;;;;;;;20.24;84.99;99603.88;1649794;85;20940;-81
2021/07/03 00:10:06;;;;;;;3.10;2.65;;;;;;;20.24;84.84;99601.19;1642117;84;21099;-80
2021/07/03 00:12:33;;;;;;;3.22;2.80;;;;;;;20.08;85.94;99608.88;1632115;84;21683;-82
2021/07/03 00:14:59;;;;;;;4.12;3.02;;;;;;;20.08;85.81;99599.49;1630546;84;21915;-82
2021/07/03 00:17:25;;;;;;;4.70;3.22;;;;;;;20.18;85.40;99596.76;1642968;85;21164;-81
2021/07/03 00:19:50;;;;;;;5.85;3.30;;;;;;;20.11;85.69;99613.50;1633419;84;21008;-81
2021/07/03 00:22:16;;;;;;;3.65;3.20;;;;;;;20.30;84.58;99610.98;1618226;84;21298;-81
2021/07/03 00:24:42;;;;;;;3.87;3.15;;;;;;;20.23;85.41;99602.26;1635441;85;20886;-82
2021/07/03 00:27:08;;;;;;;5.20;3.27;;;;;;;20.22;85.20;99612.68;1646774;84;21021;-82
2021/07/03 00:29:33;;;;;;;4.20;3.52;;;;;;;20.30;84.69;99604.28;1642212;84;20933;-81
2021/07/03 00:31:59;;;;;;;4.87;3.50;;;;;;;20.25;85.27;99612.22;1647599;84;21207;-82
2021/07/03 00:34:25;;;;;;;4.87;3.15;;;;;;;20.35;84.63;99609.75;1655141;84;21688;-82
2021/07/03 00:36:51;;;;;;;3.58;3.10;;;;;;;20.28;84.90;99611.75;1619146;84;22378;-84
2021/07/03 00:39:19;;;;;;;4.58;3.20;;;;;;;20.44;84.18;99612.36;1623683;84;21023;-84
2021/07/03 00:41:45;;;;;;;4.15;3.30;;;;;;;20.60;84.06;99611.36;1647694;83;21127;-84
2021/07/03 00:44:11;;;;;;;5.78;4.17;;;;;;;20.43;84.37;99601.37;1663618;84;21114;-84
2021/07/03 00:46:37;;;;;;;4.05;3.40;;;;;;;20.40;84.81;99599.66;1654295;83;21015;-81
2021/07/03 00:49:02;;;;;;;3.98;3.33;;;;;;;20.41;84.88;99599.42;1642248;86;20948;-82
2021/07/03 00:51:28;;;;;;;5.12;3.50;;;;;;;20.19;85.81;99598.40;1642626;86;21600;-81
2021/07/03 00:53:54;;;;;;;4.97;3.60;;;;;;;20.16;86.50;99592.16;1642900;86;20971;-83
2021/07/03 00:56:20;;;;;;;4.37;3.40;;;;;;;20.17;87.29;99581.20;1651481;86;20888;-83
2021/07/03 00:58:45;;;;;;;4.05;3.20;;;;;;;19.98;87.91;99593.08;1646584;86;21086;-83
2021/07/03 01:01:11;;;;;;;6.47;3.80;;;;;;;20.13;87.50;99589.95;1610771;86;20912;-82
2021/07/03 01:03:37;;;;;;;5.17;3.70;;;;;;;20.12;87.87;99593.16;1631190;86;20979;-83
2021/07/03 01:06:03;;;;;;;7.45;4.00;;;;;;;20.05;88.27;99594.59;1638324;85;21383;-82
2021/07/03 01:08:28;;;;;;;4.97;3.42;;;;;;;20.28;87.57;99601.02;1639442;85;21390;-85
2021/07/03 01:10:54;;;;;;;6.62;3.70;;;;;;;20.16;88.02;99594.84;1648438;85;21091;-82
2021/07/03 01:13:30;;;;;;;5.10;3.67;;;;;;;20.04;89.03;99591.64;1655995;84;20912;-83
2021/07/03 01:15:55;;;;;;;7.03;3.83;;;;;;;19.93;90.00;99595.11;1664959;84;21113;-84
2021/07/03 01:18:21;;;;;;;8.00;3.75;;;;;;;20.03;89.29;99599.38;1693344;84;21052;-84
2021/07/03 01:20:48;;;;;;;4.72;3.02;;;;;;;20.03;89.52;99602.06;1689186;84;20960;-84
2021/07/03 01:23:14;;;;;;;3.83;2.98;;;;;;;19.82;90.57;99590.56;1640516;86;21785;-83
2021/07/03 01:25:40;;;;;;;3.60;2.70;;;;;;;19.85;90.58;99585.55;1637996;84;20902;-83
2021/07/03 01:28:06;;;;;;;4.15;2.75;;;;;;;19.77;90.95;99586.42;1657537;84;21350;-84
2021/07/03 01:30:34;;;;;;;4.28;2.85;;;;;;;19.53;92.12;99581.00;1636921;85;20900;-83
2021/07/03 01:32:59;;;;;;;4.87;3.33;;;;;;;19.63;92.24;99579.09;1623686;84;21863;-83
2021/07/03 01:35:28;;;;;;;4.58;3.55;;;;;;;19.72;91.61;99584.41;1636537;84;21072;-83
2021/07/03 01:37:54;;;;;;;4.97;3.37;;;;;;;19.58;92.57;99563.70;1619066;84;21304;-83
2021/07/03 01:40:20;;;;;;;5.30;3.12;;;;;;;19.67;92.69;99571.70;1635600;84;21193;-83
2021/07/03 01:42:45;;;;;;;5.62;3.70;;;;;;;19.82;91.61;99574.48;1642479;85;20937;-84
2021/07/03 01:45:11;;;;;;;4.55;3.90;;;;;;;19.84;91.38;99570.53;1638549;83;21364;-84
2021/07/03 01:47:44;;;;;;;3.98;3.20;;;;;;;19.91;91.13;99573.09;1644333;83;21142;-84
2021/07/03 01:50:11;;;;;;;6.30;3.37;;;;;;;20.17;90.08;99572.36;1665860;84;21039;-83
2021/07/03 01:52:37;;;;;;;4.58;3.42;;;;;;;20.15;90.09;99575.78;1651012;84;21412;-84
2021/07/03 01:55:07;;;;;;;4.67;3.30;;;;;;;19.98;90.38;99563.09;1643667;84;21921;-84
2021/07/03 01:57:33;;;;;;;4.22;3.25;;;;;;;19.92;91.24;99561.34;1641696;84;21080;-85
2021/07/03 02:00:01;;;;;;;3.80;3.40;;;;;;;20.13;90.16;99561.80;1648595;84;21146;-84
2021/07/03 02:02:26;;;;;;;7.00;3.70;;;;;;;20.03;90.66;99552.48;1625923;84;21213;-83
2021/07/03 02:04:52;;;;;;;4.15;3.15;;;;;;;19.96;91.10;99565.17;1645006;84;20909;-84
2021/07/03 02:07:18;;;;;;;4.65;3.08;;;;;;;20.02;90.89;99572.28;1649661;83;20972;-84
2021/07/03 02:09:44;;;;;;;4.17;3.50;;;;;;;19.79;92.69;99553.51;1649588;83;20873;-85
2021/07/03 02:12:09;;;;;;;4.20;3.25;;;;;;;19.74;93.14;99546.94;1642117;84;20986;-85
2021/07/03 02:14:35;;;;;;;4.45;3.27;;;;;;;19.82;92.98;99548.49;1646611;86;21473;-83
2021/07/03 02:17:01;;;;;;;3.90;3.30;;;;;;;19.99;92.22;99569.25;1644465;86;20928;-83
2021/07/03 02:19:27;;;;;;;3.83;3.20;;;;;;;20.13;91.45;99559.13;1647730;85;21093;-83
2021/07/03 02:21:53;;;;;;;4.03;3.42;;;;;;;20.03;91.73;99572.58;1640374;86;20907;-82
2021/07/03 02:24:18;;;;;;;4.20;3.55;;;;;;;20.10;91.51;99564.41;1629607;86;21141;-81
2021/07/03 02:26:44;;;;;;;5.25;3.05;;;;;;;19.98;91.78;99557.73;1634813;86;21010;-81
2021/07/03 02:29:10;;;;;;;4.15;3.25;;;;;;;20.04;91.54;99574.22;1634733;86;21272;-82
2021/07/03 02:31:36;;;;;;;5.33;3.60;;;;;;;19.92;92.47;99560.00;1635005;86;20931;-82
2021/07/03 02:34:02;;;;;;;4.67;3.60;;;;;;;19.89;92.69;99559.13;1644120;86;20939;-81
2021/07/03 02:36:27;;;;;;;7.85;3.40;;;;;;;20.00;92.38;99569.02;1636241;86;21176;-82
2021/07/03 02:38:53;;;;;;;4.37;3.30;;;;;;;20.03;92.20;99577.94;1650177;86;20924;-82
2021/07/03 02:41:19;;;;;;;4.55;3.70;;;;;;;20.15;91.50;99571.75;1644907;85;21127;-82
2021/07/03 02:43:45;;;;;;;4.83;3.12;;;;;;;20.06;91.99;99576.14;1649832;86;21059;-83
2021/07/03 02:46:12;;;;;;;4.78;3.40;;;;;;;20.12;91.74;99569.55;1648586;86;20955;-83
2021/07/03 02:48:38;;;;;;;5.55;3.52;;;;;;;20.44;90.46;99565.43;1636281;85;21818;-83
2021/07/03 02:51:03;;;;;;;5.28;3.25;;;;;;;20.57;89.67;99577.80;1639991;85;21393;-83
2021/07/03 02:53:29;;;;;;;3.90;3.00;;;;;;;20.72;88.96;99579.99;1644731;85;20963;-84
2021/07/03 02:55:55;;;;;;;3.98;3.10;;;;;;;20.57;89.33;99575.11;1633414;86;21304;-83
2021/07/03 02:58:21;;;;;;;4.10;2.77;;;;;;;20.83;88.12;99577.53;1642378;86;20959;-83
2021/07/03 03:00:46;;;;;;;3.55;2.67;;;;;;;20.59;88.96;99564.95;1644917;86;21078;-83
2021/07/03 03:03:12;;;;;;;3.77;2.40;;;;;;;20.37;90.08;99560.73;1642013;85;20943;-83
2021/07/03 03:05:38;;;;;;;2.30;2.00;;;;;;;20.28;90.04;99556.78;1645120;86;20940;-82
2021/07/03 03:08:04;;;;;;;2.15;1.95;;;;;;;20.33;90.03;99556.88;1637659;85;21332;-83
2021/07/03 03:10:30;;;;;;;2.10;1.80;;;;;;;20.24;90.32;99559.63;1644944;85;21189;-82
2021/07/03 03:12:55;;;;;;;2.10;1.60;;;;;;;20.29;89.90;99561.11;1635177;85;21344;-83
2021/07/03 03:15:22;;;;;;;2.65;1.70;;;;;;;20.14;90.68;99566.13;1636599;84;20940;-83
2021/07/03 03:17:47;;;;;;;2.90;1.90;;;;;;;20.13;90.69;99572.52;1650045;84;21104;-82
2021/07/03 03:20:13;;;;;;;2.77;2.20;;;;;;;20.05;91.36;99566.45;1633418;85;20904;-82
2021/07/03 03:22:40;;;;;;;2.33;2.12;;;;;;;20.14;91.15;99571.48;1654014;86;21142;-82
2021/07/03 03:25:07;;;;;;;3.02;2.30;;;;;;;20.11;91.24;99575.97;1653187;83;21322;-82
2021/07/03 03:27:33;;;;;;;2.67;2.40;;;;;;;20.04;92.27;99571.55;1628344;83;21448;-81
2021/07/03 03:29:58;;;;;;;3.20;2.60;;;;;;;20.40;90.14;99568.31;1640324;86;21089;-81
2021/07/03 03:32:24;;;;;;;3.67;3.00;;;;;;;20.34;90.44;99575.13;1639751;86;21073;-82
2021/07/03 03:34:50;;;;;;;4.85;3.10;;;;;;;20.34;90.21;99571.94;1644822;85;20915;-82
2021/07/03 03:37:16;;;;;;;5.35;3.80;;;;;;;20.52;89.55;99570.16;1649827;86;21116;-83
2021/07/03 03:39:42;;;;;;;4.30;3.58;;;;;;;20.27;90.71;99579.27;1639021;85;20880;-83
2021/07/03 03:42:07;;;;;;;5.08;4.30;;;;;;;20.12;90.56;99552.12;1650636;85;21014;-82
2021/07/03 03:44:33;;;;;;;4.78;4.08;;;;;;;19.94;92.35;99571.30;1650766;85;20927;-83
2021/07/03 03:46:59;;;;;;;5.85;4.70;;;;;;;20.00;92.36;99570.36;1651112;86;21053;-83
2021/07/03 03:49:25;;;;;;;6.30;4.60;;;;;;;20.24;91.05;99581.08;1650782;85;21086;-83
2021/07/03 03:51:50;;;;;;;5.60;4.90;;;;;;;20.20;91.31;99574.04;1654851;85;20915;-83
2021/07/03 03:54:17;;;;;;;6.67;5.58;;;;;;;20.18;91.64;99575.31;1666780;84;20933;-83
2021/07/03 03:56:42;;;;;;;10.28;6.20;;;;;;;20.37;90.42;99567.95;1640284;85;21143;-83
2021/07/03 03:59:10;;;;;;;8.53;6.92;;;;;;;19.98;92.36;99576.49;1618192;84;21012;-82
2021/07/03 04:01:36;;;;;;;12.23;7.17;;;;;;;20.26;92.45;99565.59;1646031;84;21213;-82
2021/07/03 04:04:02;;;;;;;8.25;7.20;;;;;;;20.56;90.86;99568.11;1638977;85;21719;-82
2021/07/03 04:06:28;;;;;;;9.28;7.47;;;;;;;20.27;90.90;99573.91;1641347;84;20935;-83
2021/07/03 04:08:53;;;;;;;8.33;7.03;;;;;;;20.35;90.95;99578.91;1644842;85;20980;-85
2021/07/03 04:11:19;;;;;;;9.60;7.25;;;;;;;20.23;91.33;99576.78;1655478;84;21978;-83
2021/07/03 04:13:45;;;;;;;8.00;7.10;;;;;;;20.49;90.32;99571.97;1689368;84;21646;-83
2021/07/03 04:16:11;;;;;;;7.50;6.55;;;;;;;20.58;89.71;99569.21;1688280;84;21654;-82
2021/07/03 04:18:36;;;;;;;7.65;6.58;;;;;;;20.52;90.06;99567.47;1688060;84;20991;-82
2021/07/03 04:21:02;;;;;;;8.73;6.92;;;;;;;20.53;90.31;99569.92;1686910;84;21199;-82
2021/07/03 04:23:28;;;;;;;7.15;5.87;;;;;;;20.75;89.41;99567.98;1688025;84;20938;-82
2021/07/03 04:25:54;;;;;;;6.17;5.55;;;;;;;20.69;89.24;99570.27;1687847;84;21181;-82
2021/07/03 04:28:20;;;;;;;6.35;5.67;;;;;;;20.43;90.38;99574.55;1684911;83;21102;-81
2021/07/03 04:30:46;;;;;;;8.08;5.42;;;;;;;20.67;89.47;99571.84;1686206;84;20930;-82
2021/07/03 04:33:12;;;;;;;7.65;5.87;;;;;;;20.45;90.39;99576.46;1689872;84;21240;-82
2021/07/03 04:35:38;;;;;;;10.08;6.65;;;;;;;20.66;89.81;99575.58;1685991;84;21218;-82
2021/07/03 04:38:05;;;;;;;7.30;6.40;;;;;;;20.58;89.93;99578.06;1684549;84;22003;-82
2021/07/03 04:40:31;;;;;;;7.70;6.87;;;;;;;20.72;89.68;99588.05;1682006;83;21034;-82
2021/07/03 04:42:57;;;;;;;7.80;6.85;;;;;;;20.43;90.65;99590.64;1630102;84;21114;-81
2021/07/03 04:45:23;;;;;;;9.43;7.08;;;;;;;20.44;90.95;99578.84;1619251;84;21099;-83
2021/07/03 04:47:49;;;;;;;9.43;6.67;;;;;;;20.65;90.46;99583.35;1633168;84;21306;-83
2021/07/03 04:50:15;;;;;;;8.53;7.25;;;;;;;20.71;89.62;99582.41;1648722;85;21124;-83
2021/07/03 04:52:41;;;;;;;7.70;6.90;;;;;;;20.55;90.47;99590.61;1656173;85;20925;-85
2021/07/03 04:55:09;;;;;;;10.72;6.58;;;;;;;20.45;91.16;99583.16;1642316;85;21091;-82
2021/07/03 04:57:35;;;;;;;9.43;7.22;;;;;;;20.51;90.84;99585.95;1619945;84;21208;-83
2021/07/03 05:00:01;;;;;;;9.98;7.03;;;;;;;20.70;90.08;99587.47;1626471;84;21033;-85
2021/07/03 05:02:26;;;;;;;7.92;6.95;;;;;;;20.53;90.51;99582.52;1640141;85;21089;-83
2021/07/03 05:04:56;;;;;;;9.55;6.62;;;;;;;20.59;90.32;99597.67;1628016;86;20994;-84
2021/07/03 05:07:21;;;;;;;8.83;6.55;;;;;;;20.71;89.90;99581.57;1643135;84;21090;-84
2021/07/03 05:09:47;;;;;;;9.65;6.70;;;;;;;20.49;90.87;99571.97;1660205;85;20964;-84
2021/07/03 05:12:12;;;;;;;9.73;6.92;;;;;;;20.31;91.28;99571.06;1648813;84;22056;-84
2021/07/03 05:14:38;;;;;;;8.25;6.28;;;;;;;20.55;90.60;99596.51;1640183;84;21013;-84
2021/07/03 05:17:04;;;;;;;8.95;6.15;;;;;;;20.64;89.82;99583.02;1637893;83;20926;-84
2021/07/03 05:19:30;;;;;;;11.55;6.47;;;;;;;20.79;89.19;99581.22;1642763;84;20920;-84
2021/07/03 05:21:55;;;;;;;6.60;5.70;;;;;;;20.45;90.06;99603.28;1625677;84;21023;-84
2021/07/03 05:24:21;;;;;;;7.45;5.87;;;;;;;20.67;89.58;99591.97;1645741;86;20944;-83
2021/07/03 05:26:47;;;;;;;7.33;5.53;;;;;;;20.66;89.46;99586.84;1651256;86;21155;-83
2021/07/03 05:29:13;;;;;;;6.90;5.35;;;;;;;20.66;89.20;99593.02;1634500;86;20928;-82
2021/07/03 05:31:38;;;;;;;8.43;5.33;;;;;;;20.77;88.83;99583.30;1640824;86;21230;-81
2021/07/03 05:34:04;;;;;;;6.80;5.17;;;;;;;20.73;88.97;99588.34;1649152;85;21022;-82
2021/07/03 05:36:30;;;;;;;5.62;5.03;;;;;;;20.89;88.68;99588.66;1649510;85;21011;-85
2021/07/03 05:38:57;;;;;;;7.75;5.40;;;;;;;20.89;88.19;99591.34;1649865;85;21513;-83
2021/07/03 05:41:23;;;;;;;6.92;4.85;;;;;;;20.88;88.67;99603.95;1649226;85;21038;-87
2021/07/03 05:43:49;;;;;;;6.12;4.67;;;;;;;20.82;88.92;99596.02;1660956;84;21651;-84
2021/07/03 05:46:15;;;;;;;6.08;4.40;;;;;;;20.89;88.76;99600.73;1690177;83;20864;-83
2021/07/03 05:48:42;;;;;;;8.40;4.40;;;;;;;20.97;88.39;99605.72;1691338;83;21022;-83
2021/07/03 05:51:08;;;;;;;4.80;4.00;;;;;;;21.13;87.57;99607.66;1692057;84;22066;-83
2021/07/03 05:53:34;;;;;;;4.45;3.85;;;;;;;20.90;88.03;99611.77;1690693;83;21145;-82
2021/07/03 05:55:59;;;;;;;5.35;4.03;;;;;;;20.87;88.13;99615.73;1690584;83;20884;-83
2021/07/03 05:58:25;;;;;;;5.15;3.80;;;;;;;20.95;88.13;99610.52;1691290;84;20908;-83
2021/07/03 06:00:51;;;;;;;4.58;3.60;;;;;;;21.05;87.34;99618.78;1691323;83;20927;-83
2021/07/03 06:03:17;;;;;;;4.92;3.75;;;;;;;20.94;88.06;99614.24;1690225;83;21074;-84
2021/07/03 06:05:43;;;;;;;4.85;3.60;;;;;;;21.11;87.32;99611.09;1651398;85;20955;-83
2021/07/03 06:08:08;;;;;;;5.83;3.83;;;;;;;21.02;87.87;99613.89;1650205;85;21114;-83
2021/07/03 06:10:34;;;;;;;4.60;3.85;;;;;;;20.99;87.98;99623.77;1651268;85;20906;-83
2021/07/03 06:13:00;;;;;;;4.80;3.87;;;;;;;20.96;88.12;99618.88;1667762;85;21205;-84
2021/07/03 06:15:26;;;;;;;6.42;4.58;;;;;;;21.15;87.66;99624.34;1667255;83;21062;-83
2021/07/03 06:17:51;;;;;;;9.90;4.83;;;;;;;21.13;87.61;99617.06;1683996;84;21040;-84
2021/07/03 06:20:18;;;;;;;6.80;4.90;;;;;;;21.06;87.85;99624.42;1664317;84;20913;-83
2021/07/03 06:22:44;;;;;;;8.57;5.80;;;;;;;21.10;87.42;99638.17;1643639;83;21119;-84
2021/07/03 06:25:10;;;;;;;7.85;5.35;;;;;;;21.03;87.90;99626.24;1661490;83;20902;-84
2021/07/03 06:27:40;;;;;;;9.43;5.95;;;;;;;21.04;88.22;99635.94;1655586;83;21096;-84
2021/07/03 06:30:06;;;;;;;8.38;5.78;;;;;;;21.03;87.97;99637.52;1656528;84;21059;-84
2021/07/03 06:32:31;;;;;;;9.78;6.58;;;;;;;21.25;87.41;99633.64;1644855;86;21079;-83
2021/07/03 06:34:57;;;;;;;10.30;7.17;;;;;;;21.06;88.01;99645.90;1644987;85;21405;-84
2021/07/03 06:37:23;;;;;;;9.50;7.55;;;;;;;21.08;88.16;99635.73;1639974;85;20928;-83
2021/07/03 06:39:49;;;;;;;10.78;7.65;;;;;;;21.06;88.13;99636.50;1660096;83;21095;-83
2021/07/03 06:42:16;;;;;;;11.88;8.20;;;;;;;21.02;88.21;99646.11;1662782;83;21512;-83
2021/07/03 06:44:45;;;;;;;9.30;7.30;;;;;;;21.31;87.51;99638.06;1649809;83;21237;-84
2021/07/03 06:47:11;;;;;;;13.22;7.90;;;;;;;21.27;87.82;99640.92;1635493;83;21600;-84
2021/07/03 06:49:36;;;;;;;11.80;7.95;;;;;;;21.38;87.49;99631.19;1652029;85;21288;-84
2021/07/03 06:52:03;;;;;;;12.33;8.60;;;;;;;21.48;86.96;99631.39;1652327;85;21061;-85
2021/07/03 06:54:28;;;;;;;12.93;8.98;;;;;;;21.36;87.34;99638.15;1649474;84;21069;-85
2021/07/03 06:56:57;;;;;;;13.98;9.10;;;;;;;21.28;87.94;99637.20;1653145;84;21073;-85
2021/07/03 06:59:25;;;;;;;13.83;9.10;;;;;;;21.26;87.96;99644.69;1645616;86;21236;-85
2021/07/03 07:01:52;;;;;;;12.23;9.43;;;;;;;21.32;87.88;99647.76;1633710;85;21167;-83
2021/07/03 07:04:20;;;;;;;14.43;9.58;;;;;;;21.22;88.49;99646.20;1636661;86;21714;-84
2021/07/03 07:06:45;;;;;;;13.95;9.35;;;;;;;21.22;88.16;99640.84;1640149;86;21032;-84
2021/07/03 07:09:11;;;;;;;12.23;9.60;;;;;;;21.67;86.62;99646.80;1647757;83;20941;-86
2021/07/03 07:11:37;;;;;;;13.83;9.58;;;;;;;21.77;85.89;99641.61;1656211;83;20925;-82
2021/07/03 07:14:02;;;;;;;13.90;10.05;;;;;;;22.04;84.99;99638.28;1649616;83;20929;-84
2021/07/03 07:16:28;;;;;;;13.98;9.58;;;;;;;21.99;84.79;99638.21;1630556;83;21182;-82
2021/07/03 07:18:54;;;;;;;16.07;10.25;;;;;;;22.03;84.80;99642.02;1624079;84;21002;-83
2021/07/03 07:21:20;;;;;;;13.53;10.38;;;;;;;21.86;85.29;99644.19;1641503;84;20921;-85
2021/07/03 07:23:45;;;;;;;14.73;10.70;;;;;;;21.75;85.58;99656.34;1640265;84;20940;-84
2021/07/03 07:26:12;;;;;;;12.80;9.45;;;;;;;21.72;85.80;99648.25;1647805;85;21676;-87
2021/07/03 07:28:38;;;;;;;13.53;9.88;;;;;;;21.95;85.51;99655.88;1630059;84;27096;-87
2021/07/03 07:31:04;;;;;;;14.85;9.73;;;;;;;21.96;85.02;99638.70;1631238;84;21035;-88
2021/07/03 07:33:30;;;;;;;17.42;9.20;;;;;;;22.05;84.43;99650.68;1615655;86;21396;-86
2021/07/03 07:35:55;;;;;;;14.95;9.40;;;;;;;22.30;83.83;99633.31;1633886;85;20903;-87
2021/07/03 07:38:21;;;;;;;14.58;8.75;;;;;;;22.04;84.49;99642.31;1625038;86;20974;-88
2021/07/03 07:40:47;;;;;;;11.88;8.83;;;;;;;22.26;84.02;99637.00;1609280;86;22211;-84
2021/07/03 07:43:13;;;;;;;11.97;8.78;;;;;;;22.13;84.15;99643.54;1608192;86;21694;-87
2021/07/03 07:45:38;;;;;;;12.78;9.53;;;;;;;22.24;84.26;99642.63;1651076;85;21015;-85
2021/07/03 07:48:04;;;;;;;14.18;9.73;;;;;;;22.20;84.19;99629.92;1648687;86;20986;-86
2021/07/03 07:50:31;;;;;;;12.40;8.98;;;;;;;22.23;84.30;99634.30;1646204;85;21368;-86
2021/07/03 07:52:57;;;;;;;14.63;9.70;;;;;;;22.04;85.15;99634.25;1645290;84;21189;-85
2021/07/03 07:55:23;;;;;;;14.30;10.23;;;;;;;22.05;84.82;99638.58;1636577;86;20920;-83
2021/07/03 07:57:49;;;;;;;16.57;9.58;;;;;;;21.96;84.79;99637.35;1650770;85;21253;-86
2021/07/03 08:00:17;;;;;;;13.53;10.03;;;;;;;22.35;83.95;99641.48;1646908;85;20971;-90
2021/07/03 08:02:42;;;;;;;18.60;10.05;;;;;;;22.36;83.92;99635.05;1651474;85;21157;-85
2021/07/03 08:05:10;;;;;;;12.33;10.00;;;;;;;22.50;83.68;99641.70;1669911;83;21721;-86
2021/07/03 08:07:35;;;;;;;15.13;11.25;;;;;;;22.29;83.83;99646.47;1668506;83;21132;-86
2021/07/03 08:10:01;;;;;;;14.58;10.25;;;;;;;22.44;83.21;99648.08;1672856;84;21306;-85
2021/07/03 08:12:27;;;;;;;16.97;10.93;;;;;;;22.34;83.69;99643.37;1661612;83;20885;-87
2021/07/03 08:14:53;;;;;;;15.72;10.98;;;;;;;22.57;82.82;99640.98;1664619;84;20995;-84
2021/07/03 08:17:18;;;;;;;15.83;12.00;;;;;;;22.41;83.69;99643.19;1643531;86;21120;-83
2021/07/03 08:19:44;;;;;;;16.25;11.03;;;;;;;22.33;83.40;99663.79;1634067;85;20913;-88
2021/07/03 08:22:10;;;;;;;17.67;11.18;;;;;;;22.51;82.91;99645.20;1649543;85;21015;-83
2021/07/03 08:24:36;;;;;;;16.85;11.33;;;;;;;22.53;82.89;99651.97;1649446;86;21088;-87
2021/07/03 08:27:02;;;;;;;15.65;10.93;;;;;;;22.48;83.05;99659.98;1638805;85;21158;-86
2021/07/03 08:29:28;;;;;;;15.20;11.33;;;;;;;22.29;84.06;99654.54;1667150;83;21166;-84
2021/07/03 08:31:54;;;;;;;17.12;11.78;;;;;;;22.54;82.58;99654.12;1682281;84;20869;-86
2021/07/03 08:34:20;;;;;;;16.07;10.93;;;;;;;22.58;82.55;99646.66;1670474;83;20948;-86
2021/07/03 08:36:45;;;;;;;13.38;10.53;;;;;;;22.74;81.88;99654.94;1655789;83;20922;-85
2021/07/03 08:39:11;;;;;;;17.15;11.73;;;;;;;22.63;82.11;99655.33;1639504;83;21304;-86
2021/07/03 08:41:38;;;;;;;13.70;10.80;;;;;;;22.81;81.61;99669.05;1639978;84;21086;-84
2021/07/03 08:44:04;;;;;;;17.32;11.53;;;;;;;22.66;82.11;99662.10;1640769;86;21230;-87
2021/07/03 08:46:30;;;;;;;16.10;11.63;;;;;;;22.75;81.50;99680.80;1645826;86;21286;-86
2021/07/03 08:48:58;;;;;;;14.43;10.82;;;;;;;22.62;81.61;99664.45;1645680;85;20976;-89
2021/07/03 08:51:24;;;;;;;15.15;11.10;;;;;;;22.33;82.68;99661.09;1651479;85;21012;-86
2021/07/03 08:53:52;;;;;;;15.32;10.68;;;;;;;22.79;81.69;99650.95;1665104;84;22134;-87
2021/07/03 08:56:19;;;;;;;15.55;10.13;;;;;;;22.76;81.67;99659.53;1662774;84;21068;-84
2021/07/03 08:58:45;;;;;;;15.68;10.80;;;;;;;22.73;82.17;99658.17;1634366;84;21217;-86
2021/07/03 09:01:11;;;;;;;16.15;11.73;;;;;;;22.70;81.94;99665.91;1648286;84;21553;-87
2021/07/03 09:03:37;;;;;;;14.18;11.18;;;;;;;22.59;82.59;99679.24;1643399;86;22188;-89
2021/07/03 09:06:07;;;;;;;13.50;10.25;;;;;;;22.69;82.22;99666.99;1640781;86;21064;-86
2021/07/03 09:08:33;;;;;;;17.75;11.12;;;;;;;22.84;81.64;99663.67;1640576;86;21122;-84
2021/07/03 09:11:09;;;;;;;14.98;10.45;;;;;;;23.00;81.02;99667.40;1643114;85;20966;-88
2021/07/03 09:13:38;;;;;;;13.55;10.58;;;;;;;23.07;80.69;99668.00;1648553;85;21082;-85
2021/07/03 09:16:04;;;;;;;17.05;11.25;;;;;;;22.84;81.01;99686.05;1651730;85;21103;-86
2021/07/03 09:18:31;;;;;;;15.63;11.08;;;;;;;22.33;83.28;99678.58;1651972;84;21148;-86
2021/07/03 09:20:59;;;;;;;15.80;11.45;;;;;;;22.41;83.39;99677.62;1643340;84;21174;-87
2021/07/03 09:23:36;;;;;;;14.58;11.00;;;;;;;22.35;83.60;99676.45;1624094;84;21051;-88
2021/07/03 09:26:03;;;;;;;;;;;;;;;22.33;84.38;99677.23;1647086;84;21088;-87
2021/07/03 09:28:33;;;;;;;14.00;11.20;;;;;;;22.48;83.15;99672.09;1629811;85;20231;-87
2021/07/03 09:31:00;;;;;;;15.43;10.93;;;;;;;22.58;82.97;99678.14;1637393;84;21169;-89
2021/07/03 09:33:39;;;;;;;17.70;11.70;;;;;;;22.75;82.07;99668.69;1618709;86;21157;-88
2021/07/03 09:36:08;;;;;;;14.00;10.72;;;;;;;22.78;81.53;99681.66;1644042;83;21858;-87
2021/07/03 09:38:40;;;;;;;16.30;11.73;;;;;;;22.93;80.99;99677.82;1667183;84;21153;-86
2021/07/03 09:41:36;;;;;;;13.40;10.05;;;;;;;22.99;80.29;99688.65;1647034;85;21549;-87
2021/07/03 09:44:10;;;;;;;15.70;11.33;;;;;;;22.97;80.44;99678.67;1640666;86;21289;-89
2021/07/03 09:46:41;;;;;;;15.53;10.13;;;;;;;23.17;79.81;99691.07;1640225;85;21071;-86
2021/07/03 09:49:24;;;;;;;14.05;10.58;;;;;;;22.91;80.54;99683.97;1646538;86;21130;-86
2021/07/03 09:51:53;;;;;;;13.43;10.68;;;;;;;23.03;80.22;99680.36;1623181;86;21251;-84
2021/07/03 09:54:22;;;;;;;16.12;11.05;;;;;;;22.82;80.75;99680.61;1638805;86;21107;-84
2021/07/03 09:56:48;;;;;;;16.40;10.20;;;;;;;22.87;81.29;99670.74;1633078;86;21348;-84
2021/07/03 09:59:15;;;;;;;15.60;10.28;;;;;;;22.87;80.79;99671.25;1638296;85;21143;-86
2021/07/03 10:01:43;;;;;;;15.43;10.00;;;;;;;22.73;81.46;99668.11;1663121;85;33441;-88
2021/07/03 10:04:10;;;;;;;13.10;10.35;;;;;;;22.97;80.80;99674.63;1635704;83;21166;-88
2021/07/03 10:07:06;;;;;;;15.43;10.60;;;;;;;23.02;80.82;99676.84;1632465;85;21127;-92
2021/07/03 10:09:42;;;;;;;13.78;10.10;;;;;;;23.02;80.82;99671.45;1582849;86;21261;-89
2021/07/03 10:12:14;;;;;;;11.18;8.95;;;;;;;22.81;81.12;99667.70;1631692;86;21072;-93
2021/07/03 10:14:43;;;;;;;13.93;10.43;;;;;;;22.82;80.56;99670.66;1634547;84;21115;-87
2021/07/03 10:17:09;;;;;;;12.93;9.25;;;;;;;23.00;80.25;99670.09;1626132;84;21047;-89
2021/07/03 10:19:40;;;;;;;18.12;9.85;;;;;;;22.87;80.42;99667.22;1642961;84;20934;-89
2021/07/03 10:22:24;;;;;;;14.30;9.90;;;;;;;23.09;79.61;99656.50;1624424;84;20972;-91
2021/07/03 10:24:59;;;;;;;13.03;9.90;;;;;;;23.22;79.12;99657.45;1628893;83;20979;-91
2021/07/03 10:27:29;;;;;;;13.28;9.70;;;;;;;23.43;78.66;99667.09;1647077;85;21035;-92
2021/07/03 10:29:57;;;;;;;13.20;9.28;;;;;;;23.39;78.11;99661.95;1635222;86;21155;-93
2021/07/03 10:32:36;;;;;;;12.15;9.28;;;;;;;23.40;77.99;99685.11;1646390;85;21131;-91
2021/07/03 10:35:14;;;;;;;14.65;9.55;;;;;;;23.64;77.46;99651.41;1635940;86;21068;-88
2021/07/03 10:37:41;;;;;;;12.53;9.98;;;;;;;23.55;77.46;99653.48;1631960;85;20996;-89
2021/07/03 10:40:23;;;;;;;12.70;9.73;;;;;;;23.58;77.15;99660.52;1658137;84;21154;-90
2021/07/03 10:42:49;;;;;;;12.35;9.45;;;;;;;23.65;77.10;99663.03;1689307;84;21138;-89
2021/07/03 10:45:24;;;;;;;12.45;8.83;;;;;;;23.64;76.69;99654.11;1689739;84;21114;-89
2021/07/03 10:47:54;;;;;;;11.83;8.80;;;;;;;23.80;76.03;99640.77;1686213;83;21097;-89
2021/07/03 10:50:28;;;;;;;15.03;9.60;;;;;;;23.92;76.11;99648.19;1650811;83;21036;-90
2021/07/03 10:52:55;;;;;;;13.08;9.43;;;;;;;23.89;76.07;99635.77;1650075;83;21124;-88
2021/07/03 10:55:37;;;;;;;11.53;9.18;;;;;;;23.96;75.99;99644.47;1649746;84;21344;-88
2021/07/03 10:58:30;;;;;;;14.00;9.10;;;;;;;23.77;76.65;99652.07;1638019;86;21079;-88
2021/07/03 11:01:14;;;;;;;12.15;8.73;;;;;;;24.17;75.75;99658.91;1654991;85;21163;-87
2021/07/03 11:03:49;;;;;;;13.13;8.98;;;;;;;24.34;74.77;99656.87;1637023;84;21039;-88
2021/07/03 11:06:21;;;;;;;10.85;8.70;;;;;;;24.29;74.56;99662.23;1645042;84;20998;-86
2021/07/03 11:08:47;;;;;;;14.15;9.08;;;;;;;24.25;74.75;99651.67;1647336;84;21116;-87
2021/07/03 11:11:15;;;;;;;10.38;8.13;;;;;;;24.35;74.15;99646.91;1625305;84;21070;-88
2021/07/03 11:13:42;;;;;;;13.00;8.38;;;;;;;24.25;74.77;99654.38;1631808;84;22008;-85
2021/07/03 11:16:10;;;;;;;10.93;8.05;;;;;;;24.11;74.94;99646.45;1651168;85;21059;-85
2021/07/03 11:18:40;;;;;;;12.55;8.80;;;;;;;24.24;74.61;99647.89;1645717;86;21108;-87
2021/07/03 11:21:09;;;;;;;11.28;8.53;;;;;;;24.21;74.12;99661.38;1646969;85;21791;-88
2021/07/03 11:23:35;;;;;;;14.60;8.80;;;;;;;24.01;74.43;99650.70;1643823;84;21079;-87
2021/07/03 11:26:16;;;;;;;13.15;8.90;;;;;;;24.18;74.04;99658.66;1665483;85;21176;-87
2021/07/03 11:28:51;;;;;;;12.13;8.98;;;;;;;24.44;73.33;99636.42;1647063;85;21056;-88